Terminal Aerodrome Forecast
Issued by NWS Atlanta, GA

Home | Current Version | Previous Version | Text Only | Print | Product List | Glossary On
Versions: 1 2 3 4 5 6 7 8 9 10 11 12 13 14 15 16
000
FTUS42 KFFC 251227 AAA
TAFCSG
TAF AMD
KCSG 251227Z 2512/2612 22008KT P6SM OVC012
     FM251400 21010KT P6SM VCSH BKN015
      TEMPO 2516/2518 VRB15G25KT 4SM +SHRA BR BKN010
     FM252000 28008KT P6SM -SHRA OVC025
     FM260000 09002KT 6SM BR VCSH OVC015
     FM260500 03003KT 3SM -RA BR OVC009
     FM260900 13004KT 2SM -RA BR OVC006=

USA.gov is the U.S. government's official web portal to all federal, state and local government web resources and services.